SHT22 EGLL-EGJB
Flight info
| Callsign | SHT22 |
|---|---|
| Flight time | N/A |
| Altitude | 21000 |
| Route | GASGU N514 EVTES N621 SAM/N0376F200 N63 LELNA |
| Aircraft | A320/M-SDE3FGHIJ1RWXY/S |
Departure
| Time | N/A |
|---|---|
| Airport | London Heathrow Airport (EGLL) |
Arrival
| Time | 2026-05-05 11:35 |
|---|---|
| Airport | Guernsey Airport (EGJB) |
| Time | Latitude | Longitude | Altitude | Speed | Heading |
|---|---|---|---|---|---|
| 2026-05-05 11:08 | 51.05274 | -1.24579 | 21004 ft | 397 kts | 212° |
| 2026-05-05 11:08 | 51.02935 | -1.26955 | 21000 ft | 397 kts | 212° |
| 2026-05-05 11:08 | 51.00596 | -1.29333 | 21003 ft | 398 kts | 212° |
| 2026-05-05 11:09 | 50.98265 | -1.31706 | 21002 ft | 398 kts | 212° |
| 2026-05-05 11:09 | 50.95923 | -1.34083 | 21003 ft | 398 kts | 211° |
| 2026-05-05 11:09 | 50.93508 | -1.36131 | 21001 ft | 398 kts | 206° |
| 2026-05-05 11:09 | 50.91033 | -1.38112 | 21003 ft | 398 kts | 206° |
| 2026-05-05 11:10 | 50.88548 | -1.40095 | 21005 ft | 398 kts | 206° |
| 2026-05-05 11:10 | 50.86089 | -1.42050 | 21004 ft | 398 kts | 206° |
| 2026-05-05 11:10 | 50.83596 | -1.44029 | 21004 ft | 398 kts | 206° |
| 2026-05-05 11:10 | 50.81141 | -1.45980 | 21005 ft | 398 kts | 206° |
| 2026-05-05 11:11 | 50.78670 | -1.47941 | 21004 ft | 399 kts | 206° |
| 2026-05-05 11:11 | 50.76180 | -1.49915 | 21004 ft | 399 kts | 206° |
| 2026-05-05 11:11 | 50.73687 | -1.51891 | 21004 ft | 399 kts | 206° |
| 2026-05-05 11:11 | 50.71222 | -1.53847 | 21004 ft | 399 kts | 206° |
| 2026-05-05 11:12 | 50.68726 | -1.55825 | 21003 ft | 399 kts | 206° |
| 2026-05-05 11:12 | 50.66277 | -1.57765 | 21002 ft | 399 kts | 205° |
| 2026-05-05 11:12 | 50.63795 | -1.59729 | 20999 ft | 399 kts | 205° |
| 2026-05-05 11:12 | 50.61308 | -1.61692 | 20994 ft | 400 kts | 205° |
| 2026-05-05 11:13 | 50.58829 | -1.63644 | 20988 ft | 400 kts | 205° |
| 2026-05-05 11:13 | 50.56337 | -1.65607 | 20993 ft | 400 kts | 205° |
| 2026-05-05 11:13 | 50.53829 | -1.67582 | 20987 ft | 400 kts | 205° |
| 2026-05-05 11:13 | 50.51351 | -1.69530 | 20984 ft | 400 kts | 205° |
| 2026-05-05 11:14 | 50.48885 | -1.71466 | 20987 ft | 400 kts | 205° |
| 2026-05-05 11:14 | 50.46385 | -1.73425 | 20980 ft | 400 kts | 205° |
| 2026-05-05 11:14 | 50.43868 | -1.75394 | 20984 ft | 401 kts | 205° |
| 2026-05-05 11:14 | 50.41388 | -1.77328 | 20982 ft | 401 kts | 205° |
| 2026-05-05 11:15 | 50.38884 | -1.79278 | 20984 ft | 401 kts | 205° |
| 2026-05-05 11:15 | 50.36385 | -1.81223 | 20982 ft | 401 kts | 205° |
| 2026-05-05 11:15 | 50.33893 | -1.83159 | 20986 ft | 401 kts | 205° |
| 2026-05-05 11:15 | 50.31405 | -1.85091 | 20979 ft | 401 kts | 205° |
| 2026-05-05 11:16 | 50.28911 | -1.87026 | 20982 ft | 402 kts | 205° |
| 2026-05-05 11:16 | 50.26383 | -1.88986 | 20978 ft | 402 kts | 205° |
| 2026-05-05 11:16 | 50.23891 | -1.90920 | 20984 ft | 402 kts | 205° |
| 2026-05-05 11:16 | 50.21364 | -1.92880 | 20991 ft | 403 kts | 205° |
| 2026-05-05 11:17 | 50.18868 | -1.94812 | 20987 ft | 403 kts | 205° |
| 2026-05-05 11:17 | 50.16350 | -1.96754 | 20988 ft | 404 kts | 205° |
| 2026-05-05 11:17 | 50.13814 | -1.98704 | 20991 ft | 404 kts | 205° |
| 2026-05-05 11:17 | 50.11320 | -2.00617 | 20991 ft | 404 kts | 204° |
| 2026-05-05 11:18 | 50.08797 | -2.02552 | 20993 ft | 404 kts | 205° |
| 2026-05-05 11:18 | 50.06280 | -2.04481 | 20992 ft | 404 kts | 204° |
| 2026-05-05 11:18 | 50.03750 | -2.06418 | 20993 ft | 404 kts | 204° |
| 2026-05-05 11:18 | 50.01244 | -2.08337 | 20993 ft | 404 kts | 205° |
| 2026-05-05 11:19 | 49.98790 | -2.10604 | 20989 ft | 406 kts | 214° |
| 2026-05-05 11:19 | 49.96665 | -2.13447 | 20992 ft | 406 kts | 224° |
| 2026-05-05 11:19 | 49.94796 | -2.16697 | 20991 ft | 398 kts | 227° |
| 2026-05-05 11:19 | 49.92979 | -2.19895 | 20974 ft | 396 kts | 226° |
| 2026-05-05 11:20 | 49.91154 | -2.23086 | 20976 ft | 395 kts | 227° |
| 2026-05-05 11:20 | 49.89331 | -2.26263 | 20416 ft | 394 kts | 227° |
| 2026-05-05 11:20 | 49.87520 | -2.29420 | 19638 ft | 386 kts | 227° |
| 2026-05-05 11:20 | 49.85813 | -2.32391 | 19626 ft | 371 kts | 227° |
| 2026-05-05 11:21 | 49.84076 | -2.35402 | 19352 ft | 376 kts | 227° |
| 2026-05-05 11:21 | 49.82339 | -2.38411 | 18512 ft | 371 kts | 227° |
| 2026-05-05 11:21 | 49.80630 | -2.41371 | 17592 ft | 367 kts | 227° |
| 2026-05-05 11:21 | 49.78928 | -2.44316 | 16632 ft | 363 kts | 228° |
| 2026-05-05 11:22 | 49.77246 | -2.47229 | 15600 ft | 362 kts | 228° |
| 2026-05-05 11:22 | 49.75573 | -2.50125 | 14606 ft | 361 kts | 229° |
| 2026-05-05 11:22 | 49.73902 | -2.53014 | 13623 ft | 360 kts | 229° |
| 2026-05-05 11:22 | 49.72159 | -2.55761 | 12560 ft | 358 kts | 220° |
| 2026-05-05 11:23 | 49.70073 | -2.57839 | 11519 ft | 356 kts | 205° |
| 2026-05-05 11:23 | 49.67744 | -2.59059 | 10524 ft | 352 kts | 191° |
| 2026-05-05 11:23 | 49.65321 | -2.59410 | 9521 ft | 348 kts | 180° |
| 2026-05-05 11:23 | 49.62937 | -2.59502 | 8478 ft | 345 kts | 180° |
| 2026-05-05 11:24 | 49.60553 | -2.59602 | 7615 ft | 339 kts | 180° |
| 2026-05-05 11:24 | 49.58231 | -2.59708 | 6864 ft | 330 kts | 181° |
| 2026-05-05 11:24 | 49.55955 | -2.59817 | 6111 ft | 323 kts | 180° |
| 2026-05-05 11:24 | 49.53744 | -2.59924 | 5342 ft | 317 kts | 180° |
| 2026-05-05 11:25 | 49.51556 | -2.60027 | 4582 ft | 312 kts | 180° |
| 2026-05-05 11:25 | 49.49406 | -2.60127 | 3863 ft | 306 kts | 180° |
| 2026-05-05 11:25 | 49.47291 | -2.60332 | 3104 ft | 304 kts | 190° |
| 2026-05-05 11:25 | 49.45369 | -2.61591 | 2347 ft | 302 kts | 217° |
| 2026-05-05 11:26 | 49.44046 | -2.63953 | 2033 ft | 282 kts | 244° |
| 2026-05-05 11:26 | 49.43498 | -2.66675 | 1997 ft | 252 kts | 267° |
| 2026-05-05 11:26 | 49.43387 | -2.69268 | 2009 ft | 239 kts | 269° |
| 2026-05-05 11:26 | 49.43284 | -2.71801 | 2008 ft | 236 kts | 269° |
| 2026-05-05 11:27 | 49.43183 | -2.74310 | 2007 ft | 236 kts | 269° |
| 2026-05-05 11:27 | 49.43083 | -2.76819 | 2007 ft | 236 kts | 269° |
| 2026-05-05 11:27 | 49.43046 | -2.79326 | 2007 ft | 234 kts | 278° |
| 2026-05-05 11:27 | 49.43372 | -2.81758 | 2008 ft | 231 kts | 293° |
| 2026-05-05 11:28 | 49.44050 | -2.83934 | 2010 ft | 227 kts | 307° |
| 2026-05-05 11:28 | 49.45036 | -2.85806 | 2015 ft | 225 kts | 318° |
| 2026-05-05 11:28 | 49.46123 | -2.87554 | 2010 ft | 226 kts | 317° |
| 2026-05-05 11:28 | 49.47204 | -2.89303 | 2013 ft | 225 kts | 317° |
| 2026-05-05 11:29 | 49.48201 | -2.91155 | 2016 ft | 228 kts | 302° |
| 2026-05-05 11:29 | 49.48606 | -2.93528 | 2011 ft | 235 kts | 270° |
| 2026-05-05 11:29 | 49.48137 | -2.95930 | 2015 ft | 240 kts | 236° |
| 2026-05-05 11:29 | 49.46913 | -2.97574 | 2018 ft | 240 kts | 202° |
| 2026-05-05 11:30 | 49.45303 | -2.97969 | 2017 ft | 235 kts | 168° |
| 2026-05-05 11:30 | 49.43834 | -2.97044 | 2015 ft | 227 kts | 136° |
| 2026-05-05 11:30 | 49.42871 | -2.95194 | 2013 ft | 220 kts | 110° |
| 2026-05-05 11:30 | 49.42538 | -2.92954 | 2009 ft | 214 kts | 86° |
| 2026-05-05 11:31 | 49.42599 | -2.90678 | 2013 ft | 214 kts | 84° |
| 2026-05-05 11:31 | 49.42675 | -2.88385 | 2012 ft | 215 kts | 84° |
| 2026-05-05 11:31 | 49.42745 | -2.86100 | 2010 ft | 211 kts | 84° |
| 2026-05-05 11:31 | 49.42806 | -2.83982 | 2006 ft | 187 kts | 84° |
| 2026-05-05 11:32 | 49.42864 | -2.82038 | 2043 ft | 180 kts | 84° |
| 2026-05-05 11:32 | 49.42921 | -2.80139 | 2013 ft | 176 kts | 84° |
| 2026-05-05 11:32 | 49.42977 | -2.78269 | 2006 ft | 175 kts | 84° |
| 2026-05-05 11:32 | 49.43032 | -2.76413 | 2004 ft | 168 kts | 84° |
| 2026-05-05 11:33 | 49.43082 | -2.74674 | 1958 ft | 160 kts | 83° |
| 2026-05-05 11:33 | 49.43130 | -2.73013 | 1815 ft | 155 kts | 84° |
| 2026-05-05 11:33 | 49.43178 | -2.71360 | 1629 ft | 154 kts | 84° |
| 2026-05-05 11:33 | 49.43208 | -2.70338 | 1499 ft | 151 kts | 83° |
| 2026-05-05 11:34 | 49.43238 | -2.69263 | 1365 ft | 145 kts | 83° |
| 2026-05-05 11:34 | 49.43279 | -2.67790 | 1180 ft | 134 kts | 83° |
| 2026-05-05 11:34 | 49.43320 | -2.66388 | 997 ft | 130 kts | 82° |
| 2026-05-05 11:34 | 49.43346 | -2.65462 | 878 ft | 130 kts | 83° |
| 2026-05-05 11:35 | 49.43386 | -2.64076 | 701 ft | 130 kts | 83° |
| 2026-05-05 11:35 | 49.43425 | -2.62684 | 512 ft | 129 kts | 82° |
| 2026-05-05 11:35 | 49.43464 | -2.61305 | 352 ft | 131 kts | 84° |
| 2026-05-05 11:35 | 49.43504 | -2.60072 | 328 ft | 40 kts | 89° |
| 2026-05-05 11:36 | 49.43511 | -2.59807 | 338 ft | 33 kts | 87° |
| 2026-05-05 11:36 | 49.43519 | -2.59456 | 345 ft | 32 kts | 88° |
| 2026-05-05 11:36 | 49.43496 | -2.59204 | 354 ft | 13 kts | 152° |
| 2026-05-05 11:36 | 49.43467 | -2.59209 | 348 ft | 0 kts | 217° |
| 2026-05-05 11:37 | 49.43476 | -2.59197 | 359 ft | 2 kts | 209° |
| 2026-05-05 11:37 | 49.43479 | -2.59195 | 359 ft | 0 kts | 209° |
| 2026-05-05 11:37 | 49.43482 | -2.59193 | 359 ft | 0 kts | 206° |
| 2026-05-05 11:37 | 49.43481 | -2.59196 | 349 ft | 0 kts | 230° |
| 2026-05-05 11:38 | 49.43485 | -2.59189 | 359 ft | 2 kts | 222° |
| 2026-05-05 11:38 | 49.43491 | -2.59180 | 359 ft | 0 kts | 205° |
| 2026-05-05 11:38 | 49.43489 | -2.59182 | 359 ft | 3 kts | 205° |
| 2026-05-05 11:38 | 49.43399 | -2.59211 | 353 ft | 16 kts | 204° |
| 2026-05-05 11:39 | 49.43369 | -2.59372 | 345 ft | 15 kts | 267° |
| 2026-05-05 11:39 | 49.43363 | -2.59558 | 345 ft | 16 kts | 267° |
| 2026-05-05 11:39 | 49.43334 | -2.59688 | 338 ft | 14 kts | 201° |
| 2026-05-05 11:39 | 49.43235 | -2.59680 | 340 ft | 0 kts | 174° |